Edward F Knapp State Information

FAA: MPV - ICAO: KMPV

Edward F Knapp State (Airport) Location

State Vermont
County Washington
City Barre/Montpelier
Edward F Knapp State (Airport) is 3 miles west of Barre/Montpelier, VT.
Latitude 44-12-12.5621N
Longitude 072-33-43.5512W
Elevation 1,165ft

Edward F Knapp State METARs

METAR KMPV 182151Z AUTO 33005KT 8SM -RA SCT014 BKN029 OVC033 07/05 A2984 RMK AO2 RAE04B25 SLP111 P0005 T00670050
Altimeter 29.84"
Temperature 6.7°C (44.1°F)
Wind 330° at 5KT
Clouds scattered at 1,400ft broken at 2,900ft overcast at 3,300ft
Visibility 8.0mi
Time observed: 2021-10-18T21:51:00Z

Edward F Knapp State (Airport) Details

Status Operational
Activation August 1937
Ownership Public
Usage Public
Chart MONTREAL
ATC on-site No
Beacon schedule sunset-sunrise
Beacon color clear green

Edward F Knapp State (Airport) Contacts

Owner VERMONT AGENCY OF TRANSPORTATION
Owner address 219 NORTH MAIN STREET, BARRE, VT 05641
Owner phone (802) 476-2690
Manager T.A. BELCHAK
Manager address 1780 WEST 9000 S., SUITE 301, WEST JORDAN, UT 84088
Manager phone 801-280-2524

Edward F Knapp State Radio Frequencies

Edward F Knapp State (Airport) Radio Frequencies

UNICOM 122.8
Common traffic advisory frequency (CTAF) 122.8